createdAt,value
2024-02-07T00:00:28.234Z,8.10
2024-02-07T00:01:00.970Z,9.30
2024-02-07T00:01:33.715Z,7.40
2024-02-07T00:02:06.392Z,10.10
2024-02-07T00:02:39.045Z,9.10
2024-02-07T00:03:11.710Z,11.10
2024-02-07T00:03:42.851Z,9.10
2024-02-07T00:04:15.718Z,8.20
2024-02-07T00:04:48.645Z,9.90
2024-02-07T00:05:21.538Z,10.60
2024-02-07T00:05:54.390Z,8.30
2024-02-07T00:06:27.057Z,8.30
2024-02-07T00:06:59.805Z,8.50
2024-02-07T00:07:32.594Z,7.50
2024-02-07T00:08:05.432Z,10.40
2024-02-07T00:08:38.255Z,9.10
2024-02-07T00:09:10.947Z,6.80
2024-02-07T00:09:43.593Z,9.20
2024-02-07T00:10:16.302Z,10.20
2024-02-07T00:10:48.997Z,10.00
2024-02-07T00:11:21.666Z,6.10
2024-02-07T00:11:54.361Z,9.80
2024-02-07T00:12:27.003Z,9.90
2024-02-07T00:12:59.690Z,9.70
2024-02-07T00:13:32.457Z,9.00
2024-02-07T00:14:05.153Z,9.00
2024-02-07T00:14:37.848Z,9.30
2024-02-07T00:15:10.526Z,8.70
2024-02-07T00:15:43.193Z,9.30
2024-02-07T00:16:15.889Z,8.70
2024-02-07T00:16:48.668Z,11.20
2024-02-07T00:17:21.375Z,8.60
2024-02-07T00:17:54.170Z,8.60
2024-02-07T00:18:26.872Z,7.80
2024-02-07T00:18:59.624Z,9.90
2024-02-07T00:19:32.408Z,7.30
2024-02-07T00:20:05.185Z,9.40
2024-02-07T00:20:37.856Z,9.50
2024-02-07T00:21:10.547Z,10.70
2024-02-07T00:21:43.240Z,7.30
2024-02-07T00:22:15.992Z,7.60
2024-02-07T00:22:48.695Z,10.70
2024-02-07T00:23:21.340Z,8.60
2024-02-07T00:23:54.015Z,7.90
2024-02-07T00:24:26.677Z,9.30
2024-02-07T00:24:59.349Z,9.30
2024-02-07T00:25:32.049Z,6.50
2024-02-07T00:26:04.689Z,10.90
2024-02-07T00:26:37.372Z,8.00
2024-02-07T00:27:10.055Z,7.40
2024-02-07T00:27:42.716Z,10.50
2024-02-07T00:28:15.418Z,7.70
2024-02-07T00:28:48.114Z,8.50
2024-02-07T00:29:20.769Z,9.20
2024-02-07T00:29:53.442Z,7.00
2024-02-07T00:30:31.372Z,7.70
2024-02-07T00:30:58.202Z,9.10
2024-02-07T00:31:24.391Z,6.50
2024-02-07T00:31:57.108Z,11.00
2024-02-07T00:32:29.779Z,8.40
2024-02-07T00:33:02.496Z,8.70
2024-02-07T00:33:35.208Z,10.00
2024-02-07T00:34:07.923Z,10.30
2024-02-07T00:34:40.640Z,6.90
2024-02-07T00:35:13.370Z,7.20
2024-02-07T00:35:46.138Z,9.30
2024-02-07T00:36:18.792Z,7.20
2024-02-07T00:36:51.562Z,10.30
2024-02-07T00:37:24.257Z,6.80
2024-02-07T00:37:56.931Z,8.00
2024-02-07T00:38:29.607Z,8.90
2024-02-07T00:39:02.279Z,7.10
2024-02-07T00:39:34.943Z,8.50
2024-02-07T00:40:07.684Z,6.40
2024-02-07T00:40:40.403Z,7.80
2024-02-07T00:41:13.080Z,8.20
2024-02-07T00:41:45.764Z,6.70
2024-02-07T00:42:18.480Z,7.10
2024-02-07T00:42:51.145Z,6.30
2024-02-07T00:43:23.881Z,6.70
2024-02-07T00:43:56.650Z,10.10
2024-02-07T00:44:29.338Z,6.00
2024-02-07T00:45:01.994Z,6.40
2024-02-07T00:45:34.657Z,6.60
2024-02-07T00:46:07.341Z,7.70
2024-02-07T00:46:40.027Z,8.30
2024-02-07T00:47:12.689Z,8.70
2024-02-07T00:47:45.374Z,7.10
2024-02-07T00:48:18.047Z,6.80
2024-02-07T00:48:50.742Z,6.60
2024-02-07T00:49:23.568Z,7.30
2024-02-07T00:49:56.345Z,9.90
2024-02-07T00:50:29.110Z,8.60
2024-02-07T00:51:01.752Z,7.10
2024-02-07T00:51:34.414Z,7.80
2024-02-07T00:52:07.113Z,9.40
2024-02-07T00:52:39.905Z,7.90
2024-02-07T00:53:12.578Z,8.30
2024-02-07T00:53:45.276Z,7.50
2024-02-07T00:54:17.968Z,7.80
2024-02-07T00:54:50.628Z,5.00
2024-02-07T00:55:23.321Z,5.60
2024-02-07T00:55:56.076Z,4.50
2024-02-07T00:56:28.726Z,4.10
2024-02-07T00:57:01.438Z,3.00
2024-02-07T00:57:34.261Z,3.40
2024-02-07T00:58:06.931Z,2.00
2024-02-07T00:58:39.688Z,2.00
2024-02-07T00:59:12.419Z,1.50
2024-02-07T00:59:45.053Z,2.80
2024-02-07T01:00:17.739Z,2.20
2024-02-07T01:00:50.435Z,1.90
2024-02-07T01:01:23.180Z,2.60
2024-02-07T01:01:55.907Z,2.10
2024-02-07T01:02:28.579Z,2.20
2024-02-07T01:03:01.242Z,3.50
2024-02-07T01:03:33.946Z,2.00
2024-02-07T01:04:06.673Z,1.10
2024-02-07T01:04:39.479Z,2.40
2024-02-07T01:05:12.432Z,2.10
2024-02-07T01:05:45.229Z,2.00
2024-02-07T01:06:17.982Z,2.10
2024-02-07T01:06:50.703Z,1.40
2024-02-07T01:07:23.605Z,2.10
2024-02-07T01:07:56.396Z,1.20
2024-02-07T01:08:29.053Z,2.60
2024-02-07T01:09:01.736Z,1.70
2024-02-07T01:09:34.394Z,1.50
2024-02-07T01:10:07.213Z,1.60
2024-02-07T01:10:40.030Z,1.00
2024-02-07T01:11:12.759Z,1.50
2024-02-07T01:11:45.427Z,0.70
2024-02-07T01:12:18.120Z,1.20
2024-02-07T01:12:50.816Z,0.80
2024-02-07T01:13:23.488Z,1.00
2024-02-07T01:13:56.238Z,0.80
2024-02-07T01:14:28.880Z,1.20
2024-02-07T01:15:01.534Z,1.60
2024-02-07T01:15:34.208Z,1.50
2024-02-07T01:16:06.946Z,1.10
2024-02-07T01:16:39.668Z,0.60
2024-02-07T01:17:12.335Z,1.70
2024-02-07T01:17:45.076Z,0.40
2024-02-07T01:18:17.804Z,0.60
2024-02-07T01:18:50.493Z,1.10
2024-02-07T01:19:23.270Z,0.80
2024-02-07T01:19:56.128Z,0.70
2024-02-07T01:20:22.761Z,1.40
2024-02-07T01:20:55.560Z,1.20
2024-02-07T01:21:28.266Z,1.00
2024-02-07T01:22:00.974Z,1.30
2024-02-07T01:22:33.711Z,2.40
2024-02-07T01:23:06.369Z,0.40
2024-02-07T01:23:39.041Z,0.30
2024-02-07T01:24:11.709Z,1.80
2024-02-07T01:24:44.386Z,0.90
2024-02-07T01:25:17.102Z,0.90
2024-02-07T01:25:49.816Z,0.30
2024-02-07T01:26:22.490Z,0.90
2024-02-07T01:26:55.146Z,0.70
2024-02-07T01:27:27.836Z,1.10
2024-02-07T01:28:00.516Z,0.70
2024-02-07T01:28:33.249Z,1.40
2024-02-07T01:29:05.936Z,0.60
2024-02-07T01:29:38.616Z,0.70
2024-02-07T01:30:11.266Z,1.50
2024-02-07T01:30:43.940Z,0.60
2024-02-07T01:31:16.612Z,1.00
2024-02-07T01:31:49.341Z,2.20
2024-02-07T01:32:22.070Z,1.30
2024-02-07T01:32:54.873Z,1.40
2024-02-07T01:33:27.681Z,1.80
2024-02-07T01:34:00.513Z,0.90
2024-02-07T01:34:33.218Z,1.40
2024-02-07T01:35:05.939Z,0.70
2024-02-07T01:35:38.638Z,0.60
2024-02-07T01:36:11.310Z,1.00
2024-02-07T01:36:43.977Z,1.30
2024-02-07T01:37:16.664Z,1.50
2024-02-07T01:37:49.492Z,0.80
2024-02-07T01:38:22.246Z,1.50
2024-02-07T01:38:54.921Z,0.60
2024-02-07T01:39:27.582Z,0.90
2024-02-07T01:40:00.268Z,1.20
2024-02-07T01:40:33.010Z,0.90
2024-02-07T01:41:05.702Z,0.60
2024-02-07T01:41:38.356Z,1.40
2024-02-07T01:42:11.030Z,1.50
2024-02-07T01:42:43.719Z,2.00
2024-02-07T01:43:16.438Z,1.40
2024-02-07T01:43:49.176Z,1.30
2024-02-07T01:44:21.842Z,1.50
2024-02-07T01:44:54.510Z,0.60
2024-02-07T01:45:27.213Z,0.70
2024-02-07T01:45:59.897Z,2.60
2024-02-07T01:46:32.686Z,1.90
2024-02-07T01:47:05.340Z,1.40
2024-02-07T01:47:38.170Z,1.70
2024-02-07T01:48:11.127Z,2.70
2024-02-07T01:48:37.466Z,1.90
2024-02-07T01:49:10.225Z,2.40
2024-02-07T01:49:43.001Z,1.40
2024-02-07T01:50:15.635Z,1.80
2024-02-07T01:50:48.300Z,3.50
2024-02-07T01:51:21.082Z,2.10
2024-02-07T01:51:53.765Z,1.40
2024-02-07T01:52:26.586Z,2.70
2024-02-07T01:52:59.386Z,1.70
2024-02-07T01:53:32.193Z,1.20
2024-02-07T01:54:04.898Z,2.30
2024-02-07T01:54:37.549Z,1.50
2024-02-07T01:55:10.261Z,0.80
2024-02-07T01:55:42.979Z,1.80
2024-02-07T01:56:14.026Z,2.00
2024-02-07T01:56:46.723Z,2.40
2024-02-07T01:57:19.360Z,1.90
2024-02-07T01:57:52.056Z,2.20
2024-02-07T01:58:24.781Z,2.00
2024-02-07T01:59:30.109Z,1.30
2024-02-07T02:00:02.790Z,2.50
2024-02-07T02:00:35.472Z,1.20
2024-02-07T02:01:08.198Z,1.40
2024-02-07T02:01:40.937Z,1.50
2024-02-07T02:02:13.740Z,1.00
2024-02-07T02:02:46.458Z,1.20
2024-02-07T02:03:19.171Z,1.80
2024-02-07T02:03:51.952Z,1.80
2024-02-07T02:04:24.804Z,2.40
2024-02-07T02:04:57.518Z,1.90
2024-02-07T02:05:30.168Z,2.50
2024-02-07T02:06:02.884Z,4.20
2024-02-07T02:06:35.648Z,2.50
2024-02-07T02:07:08.530Z,1.80
2024-02-07T02:07:41.261Z,3.50
2024-02-07T02:08:13.900Z,2.70
2024-02-07T02:08:46.590Z,1.80
2024-02-07T02:09:19.244Z,2.70
2024-02-07T02:09:51.916Z,2.80
2024-02-07T02:10:24.625Z,0.90
2024-02-07T02:10:57.370Z,1.90
2024-02-07T02:11:30.046Z,2.90
2024-02-07T02:12:02.720Z,2.50
2024-02-07T02:12:35.412Z,3.10
2024-02-07T02:13:08.128Z,1.70
2024-02-07T02:13:40.870Z,2.40
2024-02-07T02:14:13.546Z,2.40
2024-02-07T02:14:46.328Z,1.50
2024-02-07T02:15:19.002Z,1.30
2024-02-07T02:15:51.664Z,2.20
2024-02-07T02:16:24.515Z,0.90
2024-02-07T02:16:57.344Z,2.50
2024-02-07T02:17:30.271Z,2.30
2024-02-07T02:18:02.956Z,1.70
2024-02-07T02:18:35.607Z,2.10
2024-02-07T02:19:08.347Z,1.10
2024-02-07T02:19:41.142Z,2.20
2024-02-07T02:20:13.866Z,2.30
2024-02-07T02:20:46.791Z,1.90
2024-02-07T02:21:19.551Z,1.80
2024-02-07T02:21:52.222Z,1.10
2024-02-07T02:22:24.946Z,2.70
2024-02-07T02:22:57.699Z,0.80
2024-02-07T02:23:30.354Z,1.70
2024-02-07T02:24:03.030Z,2.40
2024-02-07T02:24:35.701Z,1.60
2024-02-07T02:25:08.528Z,2.20
2024-02-07T02:25:41.263Z,2.60
2024-02-07T02:26:13.926Z,3.10
2024-02-07T02:26:46.593Z,2.90
2024-02-07T02:27:19.265Z,1.60
2024-02-07T02:27:51.967Z,0.90
2024-02-07T02:28:24.694Z,1.20
2024-02-07T02:28:57.392Z,2.00
2024-02-07T02:29:30.046Z,2.20
2024-02-07T02:30:02.705Z,1.30
2024-02-07T02:30:35.776Z,3.00
2024-02-07T02:31:01.988Z,3.00
2024-02-07T02:31:34.660Z,2.60
2024-02-07T02:32:07.328Z,2.50
2024-02-07T02:32:40.031Z,1.30
2024-02-07T02:33:12.737Z,1.50
2024-02-07T02:33:45.417Z,1.80
2024-02-07T02:34:18.225Z,2.70
2024-02-07T02:34:50.981Z,2.80
2024-02-07T02:35:22.157Z,2.10
2024-02-07T02:35:54.861Z,2.90
2024-02-07T02:36:27.521Z,1.10
2024-02-07T02:37:00.341Z,2.00
2024-02-07T02:37:33.054Z,1.90
2024-02-07T02:38:05.718Z,3.90
2024-02-07T02:38:38.398Z,3.20
2024-02-07T02:39:11.060Z,1.80
2024-02-07T02:39:43.722Z,2.30
2024-02-07T02:40:16.430Z,1.90
2024-02-07T02:40:49.185Z,1.40
2024-02-07T02:41:21.916Z,2.30
2024-02-07T02:41:54.595Z,4.40
2024-02-07T02:42:27.256Z,3.10
2024-02-07T02:42:59.996Z,2.30
2024-02-07T02:43:32.920Z,3.10
2024-02-07T02:43:59.301Z,3.40
2024-02-07T02:44:32.183Z,3.10
2024-02-07T02:45:04.908Z,2.60
2024-02-07T02:45:37.622Z,2.80
2024-02-07T02:46:10.330Z,3.40
2024-02-07T02:46:43.049Z,4.00
2024-02-07T02:47:15.706Z,3.80
2024-02-07T02:47:48.407Z,3.30
2024-02-07T02:48:21.242Z,3.80
2024-02-07T02:48:54.000Z,3.00
2024-02-07T02:49:26.747Z,3.30
2024-02-07T02:49:59.443Z,2.60
2024-02-07T02:50:32.102Z,2.20
2024-02-07T02:51:04.792Z,2.00
2024-02-07T02:51:37.457Z,2.20
2024-02-07T02:52:10.173Z,4.00
2024-02-07T02:52:42.910Z,2.50
2024-02-07T02:53:15.610Z,2.20
2024-02-07T02:53:48.293Z,1.60
2024-02-07T02:54:20.934Z,2.50
2024-02-07T02:54:53.634Z,2.20
2024-02-07T02:55:26.342Z,2.40
2024-02-07T02:55:59.099Z,2.20
2024-02-07T02:56:31.767Z,2.60
2024-02-07T02:57:04.436Z,2.50
2024-02-07T02:57:37.118Z,1.40
2024-02-07T02:58:09.833Z,1.40
2024-02-07T02:58:44.443Z,1.80
2024-02-07T02:59:11.111Z,1.20
2024-02-07T02:59:43.785Z,2.60
2024-02-07T03:00:16.439Z,1.80
2024-02-07T03:00:49.123Z,1.30
2024-02-07T03:01:21.860Z,2.90
2024-02-07T03:01:54.533Z,1.30
2024-02-07T03:02:27.202Z,2.10
2024-02-07T03:02:59.887Z,1.60
2024-02-07T03:03:32.601Z,2.20
2024-02-07T03:04:05.434Z,0.90
2024-02-07T03:04:38.176Z,3.90
2024-02-07T03:05:11.021Z,2.10
2024-02-07T03:05:44.014Z,1.70
2024-02-07T03:06:10.453Z,1.00
2024-02-07T03:06:43.146Z,2.40
2024-02-07T03:07:15.864Z,1.60
2024-02-07T03:07:48.632Z,1.40
2024-02-07T03:08:21.304Z,4.00
2024-02-07T03:08:53.975Z,2.80
2024-02-07T03:09:26.651Z,1.90
2024-02-07T03:09:59.333Z,2.00
2024-02-07T03:10:32.085Z,1.50
2024-02-07T03:11:04.724Z,1.70
2024-02-07T03:11:37.436Z,1.90
2024-02-07T03:12:10.059Z,2.40
2024-02-07T03:12:42.770Z,1.70
2024-02-07T03:13:15.510Z,1.20
2024-02-07T03:13:48.278Z,1.60
2024-02-07T03:14:20.942Z,2.00
2024-02-07T03:14:53.646Z,2.40
2024-02-07T03:15:26.293Z,1.40
2024-02-07T03:15:58.962Z,2.20
2024-02-07T03:16:31.654Z,2.10
2024-02-07T03:17:04.354Z,2.00
2024-02-07T03:17:37.190Z,2.90
2024-02-07T03:18:09.929Z,2.10
2024-02-07T03:18:42.638Z,3.20
2024-02-07T03:19:15.529Z,4.50
2024-02-07T03:19:48.276Z,2.80
2024-02-07T03:20:20.943Z,3.50
2024-02-07T03:20:53.583Z,2.40
2024-02-07T03:21:26.248Z,4.00
2024-02-07T03:21:58.958Z,3.50
2024-02-07T03:22:31.658Z,2.50
2024-02-07T03:23:04.350Z,2.80
2024-02-07T03:23:37.029Z,1.70
2024-02-07T03:24:09.697Z,3.30
2024-02-07T03:24:42.363Z,3.90
2024-02-07T03:25:15.064Z,2.70
2024-02-07T03:25:47.767Z,2.50
2024-02-07T03:26:20.443Z,2.60
2024-02-07T03:26:53.259Z,3.00
2024-02-07T03:27:25.900Z,2.50
2024-02-07T03:27:58.587Z,2.20
2024-02-07T03:28:31.317Z,2.40
2024-02-07T03:29:04.047Z,4.00
2024-02-07T03:29:36.863Z,2.90
2024-02-07T03:30:09.528Z,5.50
2024-02-07T03:30:42.168Z,2.40
2024-02-07T03:31:14.893Z,4.10
2024-02-07T03:31:47.642Z,3.60
2024-02-07T03:32:20.313Z,3.80
2024-02-07T03:32:53.097Z,2.00
2024-02-07T03:33:25.886Z,1.90
2024-02-07T03:33:58.663Z,1.30
2024-02-07T03:34:31.391Z,1.80
2024-02-07T03:35:04.070Z,3.50
2024-02-07T03:35:36.766Z,4.80
2024-02-07T03:36:09.412Z,3.10
2024-02-07T03:36:42.075Z,2.20
2024-02-07T03:37:14.760Z,4.10
2024-02-07T03:37:47.434Z,1.50
2024-02-07T03:38:20.091Z,2.70
2024-02-07T03:38:52.757Z,3.50
2024-02-07T03:39:25.434Z,1.50
2024-02-07T03:39:58.087Z,2.30
2024-02-07T03:40:30.776Z,4.00
2024-02-07T03:41:03.432Z,2.70
2024-02-07T03:41:36.146Z,2.00
2024-02-07T03:42:08.812Z,4.10
2024-02-07T03:42:41.480Z,4.90
2024-02-07T03:43:14.168Z,3.90
2024-02-07T03:43:46.873Z,3.40
2024-02-07T03:44:19.550Z,3.20
2024-02-07T03:44:52.203Z,2.50
2024-02-07T03:45:24.901Z,4.10
2024-02-07T03:45:57.556Z,3.80
2024-02-07T03:46:30.362Z,3.70
2024-02-07T03:47:03.118Z,3.20
2024-02-07T03:47:35.888Z,2.60
2024-02-07T03:48:08.618Z,1.80
2024-02-07T03:48:41.788Z,3.70
2024-02-07T03:49:08.196Z,4.30
2024-02-07T03:49:41.028Z,1.60
2024-02-07T03:50:13.930Z,1.80
2024-02-07T03:50:46.599Z,2.80
2024-02-07T03:51:19.278Z,1.90
2024-02-07T03:51:51.937Z,2.50
2024-02-07T03:52:24.677Z,1.50
2024-02-07T03:52:57.453Z,1.90
2024-02-07T03:53:30.109Z,3.20
2024-02-07T03:54:02.794Z,1.90
2024-02-07T03:54:35.442Z,5.00
2024-02-07T03:55:08.417Z,2.00
2024-02-07T03:55:34.783Z,3.80
2024-02-07T03:56:07.476Z,1.80
2024-02-07T03:56:40.130Z,2.80
2024-02-07T03:57:12.843Z,2.80
2024-02-07T03:57:45.511Z,2.70
2024-02-07T03:58:18.187Z,4.10
2024-02-07T03:58:50.995Z,3.30
2024-02-07T03:59:23.674Z,1.50
2024-02-07T03:59:56.332Z,3.90
2024-02-07T04:00:29.026Z,3.80
2024-02-07T04:01:01.737Z,3.40
2024-02-07T04:01:34.577Z,2.50
2024-02-07T04:02:07.300Z,3.80
2024-02-07T04:02:39.964Z,1.90
2024-02-07T04:03:12.614Z,2.70
2024-02-07T04:03:45.325Z,3.00
2024-02-07T04:04:18.020Z,3.60
2024-02-07T04:04:50.786Z,3.70
2024-02-07T04:05:23.566Z,3.10
2024-02-07T04:05:56.354Z,3.30
2024-02-07T04:06:29.169Z,3.60
2024-02-07T04:07:00.281Z,2.90
2024-02-07T04:07:33.151Z,3.20
2024-02-07T04:08:06.119Z,1.40
2024-02-07T04:08:32.542Z,3.20
2024-02-07T04:08:59.377Z,2.60
2024-02-07T04:09:32.239Z,3.40
2024-02-07T04:10:04.990Z,3.10
2024-02-07T04:10:37.690Z,3.20
2024-02-07T04:11:10.381Z,3.10
2024-02-07T04:11:43.054Z,4.20
2024-02-07T04:12:15.737Z,3.40
2024-02-07T04:12:48.422Z,3.10
2024-02-07T04:13:21.198Z,3.40
2024-02-07T04:13:53.958Z,2.40
2024-02-07T04:14:26.717Z,2.90
2024-02-07T04:14:59.375Z,5.70
2024-02-07T04:15:32.061Z,5.40
2024-02-07T04:16:04.732Z,3.70
2024-02-07T04:16:37.453Z,5.60
2024-02-07T04:17:10.138Z,3.60
2024-02-07T04:17:42.874Z,3.00
2024-02-07T04:18:15.638Z,3.40
2024-02-07T04:18:48.348Z,4.20
2024-02-07T04:19:21.121Z,4.60
2024-02-07T04:19:53.791Z,6.00
2024-02-07T04:20:26.466Z,2.90
2024-02-07T04:20:59.117Z,5.00
2024-02-07T04:21:31.801Z,5.40
2024-02-07T04:22:04.467Z,2.30
2024-02-07T04:22:37.162Z,3.90
2024-02-07T04:23:09.813Z,3.50
2024-02-07T04:23:42.496Z,2.40
2024-02-07T04:24:15.188Z,1.80
2024-02-07T04:24:47.870Z,1.70
2024-02-07T04:25:20.577Z,4.00
2024-02-07T04:25:53.322Z,2.80
2024-02-07T04:26:25.969Z,3.10
2024-02-07T04:26:58.716Z,3.90
2024-02-07T04:27:31.390Z,3.60
2024-02-07T04:28:04.055Z,3.00
2024-02-07T04:28:36.878Z,3.80
2024-02-07T04:29:09.563Z,3.30
2024-02-07T04:29:42.227Z,3.40
2024-02-07T04:30:14.904Z,2.80
2024-02-07T04:30:47.609Z,3.90
2024-02-07T04:31:20.347Z,3.10
2024-02-07T04:31:53.046Z,3.60
2024-02-07T04:32:25.791Z,6.80
2024-02-07T04:32:58.478Z,3.40
2024-02-07T04:33:31.292Z,2.70
2024-02-07T04:34:04.066Z,2.70
2024-02-07T04:34:36.784Z,4.50
2024-02-07T04:35:09.527Z,2.70
2024-02-07T04:35:42.176Z,4.10
2024-02-07T04:36:14.856Z,4.10
2024-02-07T04:36:47.539Z,4.30
2024-02-07T04:37:20.235Z,4.10
2024-02-07T04:37:53.039Z,2.80
2024-02-07T04:38:25.701Z,3.30
2024-02-07T04:38:58.388Z,2.00
2024-02-07T04:39:31.173Z,5.00
2024-02-07T04:40:03.806Z,2.60
2024-02-07T04:40:36.627Z,1.50
2024-02-07T04:41:09.338Z,3.20
2024-02-07T04:41:42.007Z,3.10
2024-02-07T04:42:14.780Z,2.60
2024-02-07T04:42:47.440Z,3.10
2024-02-07T04:43:20.159Z,3.70
2024-02-07T04:43:52.882Z,4.60
2024-02-07T04:44:25.532Z,3.70
2024-02-07T04:44:58.201Z,3.60
2024-02-07T04:45:30.872Z,2.90
2024-02-07T04:46:03.566Z,4.90
2024-02-07T04:46:36.268Z,2.50
2024-02-07T04:47:08.951Z,3.90
2024-02-07T04:47:41.691Z,3.00
2024-02-07T04:48:14.382Z,4.00
2024-02-07T04:48:47.182Z,4.20
2024-02-07T04:49:19.917Z,4.90
2024-02-07T04:49:52.691Z,3.90
2024-02-07T04:50:25.409Z,2.10
2024-02-07T04:50:58.117Z,3.00
2024-02-07T04:51:30.779Z,2.20
2024-02-07T04:52:03.472Z,3.80
2024-02-07T04:52:36.191Z,5.60
2024-02-07T04:53:08.824Z,3.20
2024-02-07T04:53:41.512Z,4.50
2024-02-07T04:54:14.191Z,5.40
2024-02-07T04:54:46.854Z,6.10
2024-02-07T04:55:20.043Z,5.30
2024-02-07T04:55:46.336Z,3.60
2024-02-07T04:56:19.013Z,5.90
2024-02-07T04:56:51.684Z,3.80
2024-02-07T04:57:24.375Z,2.10
2024-02-07T04:57:57.047Z,2.90
2024-02-07T04:58:29.761Z,2.60
2024-02-07T04:59:02.564Z,6.90
2024-02-07T04:59:35.211Z,5.50
2024-02-07T05:00:07.906Z,3.70
2024-02-07T05:00:40.642Z,3.40
2024-02-07T05:01:13.541Z,3.80
2024-02-07T05:01:44.476Z,5.00
2024-02-07T05:02:17.221Z,5.10
2024-02-07T05:02:49.882Z,5.50
2024-02-07T05:03:22.619Z,4.10
2024-02-07T05:03:55.353Z,4.10
2024-02-07T05:04:28.103Z,3.80
2024-02-07T05:05:00.852Z,5.40
2024-02-07T05:05:33.592Z,4.40
2024-02-07T05:06:06.352Z,3.80
2024-02-07T05:06:38.998Z,3.70
2024-02-07T05:07:11.723Z,4.90
2024-02-07T05:07:44.454Z,4.70
2024-02-07T05:08:17.137Z,4.40
2024-02-07T05:08:49.812Z,4.90
2024-02-07T05:09:22.489Z,6.90
2024-02-07T05:09:55.152Z,2.90
2024-02-07T05:10:27.818Z,3.80
2024-02-07T05:11:00.530Z,5.90
2024-02-07T05:11:33.231Z,5.60
2024-02-07T05:12:05.884Z,3.30
2024-02-07T05:12:38.607Z,4.40
2024-02-07T05:13:11.321Z,5.00
2024-02-07T05:13:44.066Z,4.20
2024-02-07T05:14:16.734Z,3.40
2024-02-07T05:14:49.585Z,2.90
2024-02-07T05:15:22.332Z,7.60
2024-02-07T05:15:54.986Z,5.00
2024-02-07T05:16:27.697Z,4.80
2024-02-07T05:17:00.364Z,4.60
2024-02-07T05:17:33.106Z,5.40
2024-02-07T05:18:05.792Z,7.60
2024-02-07T05:18:38.476Z,4.10
2024-02-07T05:19:11.331Z,5.50
2024-02-07T05:19:44.034Z,8.00
2024-02-07T05:20:16.860Z,3.40
2024-02-07T05:20:49.540Z,6.50
2024-02-07T05:21:22.206Z,6.30
2024-02-07T05:21:54.877Z,4.50
2024-02-07T05:22:27.566Z,3.70
2024-02-07T05:23:00.301Z,5.30
2024-02-07T05:23:32.955Z,5.60
2024-02-07T05:24:05.626Z,6.40
2024-02-07T05:24:38.322Z,5.70
2024-02-07T05:25:11.036Z,6.80
2024-02-07T05:25:43.800Z,6.30
2024-02-07T05:26:19.726Z,5.10
2024-02-07T05:26:46.274Z,4.20
2024-02-07T05:27:19.081Z,5.70
2024-02-07T05:27:51.766Z,4.70
2024-02-07T05:28:24.432Z,6.00
2024-02-07T05:28:57.199Z,5.00
2024-02-07T05:29:29.881Z,5.90
2024-02-07T05:30:02.549Z,3.40
2024-02-07T05:30:35.237Z,5.60
2024-02-07T05:31:07.877Z,6.60
2024-02-07T05:31:40.706Z,5.50
2024-02-07T05:32:13.787Z,4.00
2024-02-07T05:32:40.357Z,5.10
2024-02-07T05:33:06.652Z,6.90
2024-02-07T05:33:39.501Z,5.00
2024-02-07T05:34:12.356Z,5.40
2024-02-07T05:34:45.219Z,4.60
2024-02-07T05:35:18.146Z,4.40
2024-02-07T05:35:50.942Z,4.00
2024-02-07T05:36:23.656Z,4.20
2024-02-07T05:36:56.331Z,3.50
2024-02-07T05:37:29.020Z,4.00
2024-02-07T05:38:01.812Z,7.30
2024-02-07T05:38:34.473Z,4.00
2024-02-07T05:39:07.145Z,6.80
2024-02-07T05:39:39.834Z,6.40
2024-02-07T05:40:12.593Z,4.60
2024-02-07T05:40:45.277Z,3.60
2024-02-07T05:41:17.945Z,3.70
2024-02-07T05:41:50.625Z,3.90
2024-02-07T05:42:23.288Z,6.60
2024-02-07T05:42:55.968Z,5.90
2024-02-07T05:43:28.668Z,6.00
2024-02-07T05:44:01.381Z,3.60
2024-02-07T05:44:34.052Z,2.80
2024-02-07T05:45:06.729Z,5.60
2024-02-07T05:45:33.221Z,9.00
2024-02-07T05:46:05.893Z,4.30
2024-02-07T05:46:38.609Z,7.00
2024-02-07T05:47:11.279Z,4.30
2024-02-07T05:47:43.984Z,7.50
2024-02-07T05:48:16.669Z,3.30
2024-02-07T05:48:49.345Z,3.80
2024-02-07T05:49:22.064Z,6.30
2024-02-07T05:49:54.790Z,5.90
2024-02-07T05:50:27.471Z,3.00
2024-02-07T05:51:00.149Z,7.60
2024-02-07T05:51:32.824Z,3.70
2024-02-07T05:52:05.467Z,4.60
2024-02-07T05:52:38.242Z,3.10
2024-02-07T05:53:10.873Z,5.90
2024-02-07T05:53:43.546Z,5.70
2024-02-07T05:54:16.208Z,4.90
2024-02-07T05:54:48.892Z,4.60
2024-02-07T05:55:21.616Z,4.70
2024-02-07T05:55:54.338Z,5.80
2024-02-07T05:56:27.071Z,4.70
2024-02-07T05:56:59.747Z,4.00
2024-02-07T05:57:32.424Z,5.40
2024-02-07T05:58:05.118Z,2.80
2024-02-07T05:58:37.821Z,5.30
2024-02-07T05:59:10.506Z,6.00
2024-02-07T05:59:43.175Z,5.50
2024-02-07T06:00:15.838Z,5.60
2024-02-07T06:00:48.536Z,4.60
2024-02-07T06:01:21.304Z,4.30
2024-02-07T06:01:54.045Z,4.10
2024-02-07T06:02:26.827Z,4.90
2024-02-07T06:02:59.529Z,5.30
2024-02-07T06:03:32.245Z,6.70
2024-02-07T06:04:04.914Z,5.30
2024-02-07T06:04:37.764Z,4.70
2024-02-07T06:05:10.543Z,5.80
2024-02-07T06:05:43.223Z,6.60
2024-02-07T06:06:15.881Z,6.90
2024-02-07T06:06:48.603Z,4.00
2024-02-07T06:07:21.384Z,5.70
2024-02-07T06:07:54.172Z,4.20
2024-02-07T06:08:26.924Z,4.90
2024-02-07T06:08:59.626Z,4.60
2024-02-07T06:09:32.292Z,8.00
2024-02-07T06:10:04.958Z,4.50
2024-02-07T06:10:37.691Z,4.50
2024-02-07T06:11:10.392Z,5.60
2024-02-07T06:11:43.145Z,4.30
2024-02-07T06:12:15.792Z,4.70
2024-02-07T06:12:48.484Z,5.20
2024-02-07T06:13:21.170Z,5.70
2024-02-07T06:13:53.937Z,5.90
2024-02-07T06:14:26.663Z,5.70
2024-02-07T06:14:59.324Z,3.60
2024-02-07T06:15:32.015Z,7.20
2024-02-07T06:16:04.659Z,3.40
2024-02-07T06:16:37.826Z,5.10
2024-02-07T06:17:04.610Z,4.80
2024-02-07T06:17:37.418Z,5.20
2024-02-07T06:18:10.129Z,5.50
2024-02-07T06:18:42.912Z,5.00
2024-02-07T06:19:15.719Z,4.80
2024-02-07T06:19:48.527Z,4.10
2024-02-07T06:20:21.349Z,5.90
2024-02-07T06:20:54.337Z,6.00
2024-02-07T06:21:27.050Z,6.00
2024-02-07T06:21:59.745Z,4.10
2024-02-07T06:22:32.431Z,5.30
2024-02-07T06:23:05.153Z,5.20
2024-02-07T06:23:37.805Z,6.80
2024-02-07T06:24:10.467Z,6.50
2024-02-07T06:24:43.161Z,6.90
2024-02-07T06:25:15.957Z,5.20
2024-02-07T06:25:48.748Z,7.70
2024-02-07T06:26:21.393Z,5.00
2024-02-07T06:26:54.087Z,6.30
2024-02-07T06:27:26.746Z,5.60
2024-02-07T06:27:59.522Z,7.30
2024-02-07T06:28:32.270Z,3.80
2024-02-07T06:29:05.022Z,11.00
2024-02-07T06:29:38.413Z,8.30
2024-02-07T06:30:05.301Z,5.10
2024-02-07T06:30:37.970Z,5.20
2024-02-07T06:31:10.650Z,4.80
2024-02-07T06:31:43.361Z,4.60
2024-02-07T06:32:16.093Z,7.50
2024-02-07T06:32:48.828Z,8.30
2024-02-07T06:33:21.639Z,8.80
2024-02-07T06:33:54.538Z,9.30
2024-02-07T06:34:27.356Z,6.90
2024-02-07T06:35:00.090Z,7.40
2024-02-07T06:35:32.765Z,7.10
2024-02-07T06:36:05.448Z,7.70
2024-02-07T06:36:38.113Z,8.70
2024-02-07T06:37:10.810Z,7.40
2024-02-07T06:37:43.648Z,6.70
2024-02-07T06:38:16.402Z,6.50
2024-02-07T06:38:49.061Z,8.30
2024-02-07T06:39:21.719Z,4.60
2024-02-07T06:39:54.381Z,9.10
2024-02-07T06:40:27.091Z,6.60
2024-02-07T06:40:59.823Z,6.40
2024-02-07T06:41:32.511Z,6.10
2024-02-07T06:42:05.187Z,9.00
2024-02-07T06:42:37.878Z,8.90
2024-02-07T06:43:10.601Z,6.80
2024-02-07T06:43:43.269Z,5.70
2024-02-07T06:44:15.942Z,7.90
2024-02-07T06:44:48.613Z,7.40
2024-02-07T06:45:21.278Z,8.40
2024-02-07T06:45:53.946Z,8.70
2024-02-07T06:46:26.654Z,4.80
2024-02-07T06:46:59.361Z,9.60
2024-02-07T06:47:32.073Z,9.90
2024-02-07T06:48:04.871Z,5.60
2024-02-07T06:48:37.690Z,6.60
2024-02-07T06:49:10.715Z,8.20
2024-02-07T06:49:37.052Z,8.90
2024-02-07T06:50:09.962Z,6.40
2024-02-07T06:50:36.386Z,10.00
2024-02-07T06:51:09.074Z,8.60
2024-02-07T06:51:42.560Z,7.60
2024-02-07T06:52:08.895Z,6.10
2024-02-07T06:52:41.715Z,6.00
2024-02-07T06:53:14.495Z,6.70
2024-02-07T06:53:47.156Z,8.00
2024-02-07T06:54:19.842Z,7.40
2024-02-07T06:54:52.482Z,8.60
2024-02-07T06:55:25.269Z,6.90
2024-02-07T06:56:00.168Z,6.60
2024-02-07T06:56:26.735Z,7.60
2024-02-07T06:56:59.479Z,8.10
2024-02-07T06:57:32.192Z,9.10
2024-02-07T06:58:04.863Z,10.10
2024-02-07T06:58:37.622Z,10.70
2024-02-07T06:59:10.265Z,5.10
2024-02-07T06:59:42.936Z,5.30
2024-02-07T07:00:15.644Z,9.60
2024-02-07T07:00:48.337Z,10.40
2024-02-07T07:01:21.097Z,6.80
2024-02-07T07:01:53.951Z,9.90
2024-02-07T07:02:26.640Z,6.70
2024-02-07T07:02:59.358Z,8.10
2024-02-07T07:03:32.104Z,8.50
2024-02-07T07:04:04.761Z,8.00
2024-02-07T07:04:37.484Z,8.10
2024-02-07T07:05:10.237Z,6.20
2024-02-07T07:05:43.100Z,7.90
2024-02-07T07:06:15.827Z,7.40
2024-02-07T07:06:48.474Z,9.90
2024-02-07T07:07:21.200Z,7.20
2024-02-07T07:07:53.953Z,9.10
2024-02-07T07:08:26.614Z,11.30
2024-02-07T07:08:59.289Z,7.20
2024-02-07T07:09:31.940Z,7.40
2024-02-07T07:10:04.617Z,11.80
2024-02-07T07:10:37.333Z,8.10
2024-02-07T07:11:09.996Z,6.90
2024-02-07T07:11:42.738Z,5.70
2024-02-07T07:12:15.401Z,8.00
2024-02-07T07:12:48.067Z,7.60
2024-02-07T07:13:20.796Z,8.80